Time;durP1;ratioP1;P1;durP2;ratioP2;P2;SDS_P1;SDS_P2;PMS_P1;PMS_P2;Temp;Humidity;BMP_temperature;BMP_pressure;BME280_temperature;BME280_humidity;BME280_pressure;Samples;Min_cycle;Max_cycle;Signal;HPM_P1;HPM_P2
2023/09/27 00:01:24;;;;;;;22.70;20.98;;;12.10;99.90;;;;;;4938127;28;20069;-79
2023/09/27 00:03:51;;;;;;;24.63;22.38;;;12.10;99.90;;;;;;4951058;28;20635;-78
2023/09/27 00:06:18;;;;;;;24.17;22.23;;;12.10;99.90;;;;;;4947706;28;20046;-76
2023/09/27 00:08:44;;;;;;;23.75;21.80;;;12.00;99.90;;;;;;4952253;28;20047;-77
2023/09/27 00:11:12;;;;;;;22.70;20.90;;;12.10;99.90;;;;;;4952539;28;20102;-77
2023/09/27 00:14:27;;;;;;;;;;;;;;;;;;;;;
2023/09/27 00:18:19;;;;;;;24.80;22.50;;;12.10;99.90;;;;;;4855801;29;20036;-85
2023/09/27 00:26:26;;;;;;;24.20;21.95;;;12.00;99.90;;;;;;4870973;29;20115;-85
2023/09/27 00:30:14;;;;;;;24.40;22.02;;;11.80;99.90;;;;;;4892281;29;20048;-86
2023/09/27 00:41:58;;;;;;;24.23;22.20;;;11.70;99.90;;;;;;4881002;29;20564;-85
2023/09/27 00:45:36;;;;;;;25.25;23.10;;;11.80;99.90;;;;;;4909662;29;20068;-85
2023/09/27 00:49:02;;;;;;;25.60;23.45;;;11.50;99.90;;;;;;4893822;29;20059;-86
2023/09/27 00:52:37;;;;;;;25.30;23.30;;;11.60;99.90;;;;;;4943046;28;20055;-85
2023/09/27 00:55:46;;;;;;;24.77;22.42;;;11.60;99.90;;;;;;4934238;28;20153;-85
2023/09/27 00:58:52;;;;;;;24.02;21.90;;;11.50;99.90;;;;;;4958120;28;20043;-83
2023/09/27 01:05:41;;;;;;;25.13;23.13;;;11.30;99.90;;;;;;4949358;28;20046;-85
2023/09/27 01:08:57;;;;;;;26.33;24.00;;;11.20;99.90;;;;;;4940502;28;20039;-84
2023/09/27 01:12:16;;;;;;;26.63;24.05;;;11.20;99.90;;;;;;4945446;28;20154;-84
2023/09/27 01:16:00;;;;;;;25.95;23.60;;;11.40;99.90;;;;;;4945037;28;20055;-87
2023/09/27 01:19:43;;;;;;;24.27;22.38;;;11.30;99.90;;;;;;4946260;28;20047;-85
2023/09/27 01:23:14;;;;;;;24.67;22.60;;;11.10;99.90;;;;;;4949850;28;20066;-84
2023/09/27 01:29:38;;;;;;;26.60;24.08;;;11.00;99.90;;;;;;4950230;28;20117;-84
2023/09/27 01:36:34;;;;;;;26.58;24.27;;;11.00;99.90;;;;;;4965060;28;20038;-84
2023/09/27 01:40:26;;;;;;;27.45;25.08;;;10.90;99.90;;;;;;4955992;28;20116;-84
2023/09/27 01:47:35;;;;;;;26.23;24.05;;;10.90;99.90;;;;;;4903576;28;20046;-85
2023/09/27 01:50:45;;;;;;;27.40;25.00;;;10.80;99.90;;;;;;4950048;28;20035;-84
2023/09/27 01:53:47;;;;;;;28.58;25.90;;;10.90;99.90;;;;;;4932531;28;20042;-84
2023/09/27 01:56:37;;;;;;;29.27;26.77;;;11.10;99.90;;;;;;4955541;28;20125;-84
2023/09/27 01:59:05;;;;;;;28.75;26.38;;;11.10;99.90;;;;;;4960083;28;20035;-84
2023/09/27 02:01:34;;;;;;;30.60;27.52;;;11.00;99.90;;;;;;4946452;28;20740;-85
2023/09/27 02:04:02;;;;;;;30.40;27.63;;;11.00;99.90;;;;;;4949329;28;21376;-84
2023/09/27 02:06:31;;;;;;;31.10;27.85;;;10.90;99.90;;;;;;4934386;28;20120;-84
2023/09/27 02:09:02;;;;;;;30.30;27.20;;;10.80;99.90;;;;;;4931606;28;20098;-85
2023/09/27 02:11:30;;;;;;;30.15;27.40;;;10.80;99.90;;;;;;4946149;28;20670;-84
2023/09/27 02:13:58;;;;;;;29.98;27.30;;;10.90;99.90;;;;;;4949469;28;20048;-85
2023/09/27 02:16:27;;;;;;;29.63;26.92;;;10.90;99.90;;;;;;4959878;28;20126;-84
2023/09/27 02:18:57;;;;;;;29.08;26.48;;;10.90;99.90;;;;;;4950398;28;20050;-84
2023/09/27 02:21:26;;;;;;;26.25;24.15;;;10.70;99.90;;;;;;4948803;28;20042;-85
2023/09/27 02:23:54;;;;;;;26.92;24.70;;;10.70;99.90;;;;;;4936118;28;20093;-85
2023/09/27 02:26:22;;;;;;;26.75;24.45;;;10.60;99.90;;;;;;4935670;28;20101;-85
2023/09/27 02:28:50;;;;;;;28.90;26.50;;;10.60;99.90;;;;;;4960280;28;20097;-84
2023/09/27 02:31:20;;;;;;;27.50;25.02;;;10.60;99.90;;;;;;4934329;28;20050;-85
2023/09/27 02:33:48;;;;;;;27.05;24.80;;;10.60;99.90;;;;;;4935071;28;20047;-84
2023/09/27 02:36:16;;;;;;;27.63;25.02;;;10.50;99.90;;;;;;4956432;28;20039;-85
2023/09/27 02:38:44;;;;;;;27.58;25.05;;;10.40;99.90;;;;;;4928553;28;20047;-84
2023/09/27 02:41:13;;;;;;;26.60;24.20;;;10.30;99.90;;;;;;4927644;28;20066;-84
2023/09/27 02:43:41;;;;;;;26.90;24.52;;;10.20;99.90;;;;;;4928708;28;20528;-85
2023/09/27 02:46:08;;;;;;;27.67;25.45;;;10.20;99.90;;;;;;4952606;28;20043;-85
2023/09/27 02:49:36;;;;;;;28.98;26.17;;;10.20;99.90;;;;;;4940806;28;20180;-85
2023/09/27 02:52:28;;;;;;;29.60;26.90;;;10.30;99.90;;;;;;4939687;28;20116;-85
2023/09/27 02:55:19;;;;;;;28.40;25.80;;;10.40;99.90;;;;;;4947416;28;20569;-85
2023/09/27 02:58:13;;;;;;;28.75;26.15;;;10.40;99.90;;;;;;4936455;28;20441;-85
2023/09/27 03:00:57;;;;;;;27.88;25.25;;;10.30;99.90;;;;;;4919727;28;20042;-85
2023/09/27 03:03:51;;;;;;;27.70;25.20;;;10.30;99.90;;;;;;4950815;28;20046;-85
2023/09/27 03:06:33;;;;;;;26.80;24.52;;;10.40;99.90;;;;;;4939935;28;20046;-85
2023/09/27 03:09:35;;;;;;;27.88;25.25;;;10.40;99.90;;;;;;4954319;28;20045;-87
2023/09/27 03:12:28;;;;;;;;;;;10.60;99.90;;;;;;4952751;28;20049;-86
2023/09/27 03:15:12;;;;;;;27.70;25.10;;;10.40;99.90;;;;;;4969005;28;19929;-87
2023/09/27 03:18:27;;;;;;;28.13;25.35;;;10.30;99.90;;;;;;4978361;28;20125;-87
2023/09/27 03:21:21;;;;;;;27.23;24.73;;;10.20;99.90;;;;;;4931507;28;20115;-86
2023/09/27 03:24:03;;;;;;;26.55;24.13;;;10.20;99.90;;;;;;4940620;28;20071;-86
2023/09/27 03:26:43;;;;;;;26.75;24.17;;;10.20;99.90;;;;;;4959512;28;20047;-86
2023/09/27 03:29:42;;;;;;;28.77;26.05;;;10.20;99.90;;;;;;4950873;28;20110;-87
2023/09/27 03:32:51;;;;;;;28.48;25.98;;;10.20;99.90;;;;;;4952810;28;20074;-87
2023/09/27 03:35:48;;;;;;;27.55;25.15;;;10.20;99.90;;;;;;4963666;28;20616;-86
2023/09/27 03:38:55;;;;;;;27.67;25.17;;;10.20;99.90;;;;;;4960850;28;20047;-87
2023/09/27 03:41:38;;;;;;;28.45;25.85;;;10.10;99.90;;;;;;4940363;28;20051;-87
2023/09/27 03:44:40;;;;;;;28.42;26.10;;;10.00;99.90;;;;;;4960938;28;20490;-87
2023/09/27 03:47:56;;;;;;;27.10;24.70;;;10.00;99.90;;;;;;4960581;28;20039;-87
2023/09/27 03:50:43;;;;;;;28.65;26.10;;;10.10;99.90;;;;;;4925686;28;20097;-87
2023/09/27 03:53:31;;;;;;;28.55;25.85;;;10.20;99.90;;;;;;4978909;28;20057;-87
2023/09/27 03:56:20;;;;;;;29.10;26.30;;;10.20;99.90;;;;;;4941680;28;21708;-87
2023/09/27 03:59:13;;;;;;;29.20;26.40;;;10.30;99.90;;;;;;4942096;28;20134;-87
2023/09/27 04:01:58;;;;;;;30.65;27.80;;;10.20;99.90;;;;;;4942664;28;20398;-87
2023/09/27 04:04:49;;;;;;;31.58;28.63;;;10.20;99.90;;;;;;4960622;28;20219;-87
2023/09/27 04:08:10;;;;;;;32.58;29.08;;;10.30;99.90;;;;;;4958764;28;20452;-87
2023/09/27 04:11:42;;;;;;;;;;;;;;;;;;;;;
2023/09/27 04:14:27;;;;;;;28.13;25.65;;;10.00;99.90;;;;;;4947531;28;20445;-87
2023/09/27 04:17:26;;;;;;;29.05;26.45;;;10.00;99.90;;;;;;4952498;28;20181;-87
2023/09/27 04:20:41;;;;;;;31.38;28.33;;;9.90;99.90;;;;;;4949181;28;20061;-87
2023/09/27 04:23:20;;;;;;;31.90;28.90;;;10.00;99.90;;;;;;4945635;28;20130;-87
2023/09/27 04:26:04;;;;;;;31.42;28.35;;;10.10;99.90;;;;;;4965240;28;20054;-87
2023/09/27 04:29:19;;;;;;;30.13;27.02;;;10.30;99.90;;;;;;4957905;28;20520;-87
2023/09/27 04:32:00;;;;;;;30.73;27.67;;;10.30;99.90;;;;;;4929636;28;20047;-86
2023/09/27 04:34:35;;;;;;;31.85;28.60;;;10.10;99.90;;;;;;4943162;28;20098;-87
2023/09/27 04:37:06;;;;;;;30.27;27.35;;;10.00;99.90;;;;;;4960927;28;20062;-87
2023/09/27 04:39:44;;;;;;;30.70;27.67;;;9.90;99.90;;;;;;4965314;28;20046;-87
2023/09/27 04:42:15;;;;;;;33.00;29.75;;;9.90;99.90;;;;;;4939770;28;20047;-86
2023/09/27 04:44:52;;;;;;;31.92;28.92;;;9.80;99.90;;;;;;4951233;28;20043;-87
2023/09/27 04:47:29;;;;;;;30.75;27.92;;;9.70;99.90;;;;;;4939582;28;20051;-87
2023/09/27 04:50:12;;;;;;;31.55;28.55;;;9.70;99.90;;;;;;4955405;28;20130;-87
2023/09/27 04:52:48;;;;;;;30.63;27.92;;;9.70;99.90;;;;;;4959780;28;20121;-87
2023/09/27 04:55:17;;;;;;;30.03;27.30;;;9.70;99.90;;;;;;4948609;28;20047;-86
2023/09/27 04:57:49;;;;;;;29.23;26.83;;;9.70;99.90;;;;;;4952549;28;20046;-86
2023/09/27 05:00:22;;;;;;;29.83;27.15;;;9.60;99.90;;;;;;4942194;28;20082;-86
2023/09/27 05:03:09;;;;;;;31.75;28.73;;;9.60;99.90;;;;;;4948809;28;20078;-86
2023/09/27 05:05:48;;;;;;;31.67;28.55;;;9.70;99.90;;;;;;4946914;28;20074;-86
2023/09/27 05:08:25;;;;;;;30.40;27.83;;;9.80;99.90;;;;;;4939173;28;20070;-88
2023/09/27 05:11:13;;;;;;;30.77;27.83;;;9.70;99.90;;;;;;4965973;28;20039;-87
2023/09/27 05:13:57;;;;;;;29.63;27.08;;;9.60;99.90;;;;;;4942375;28;20043;-87
2023/09/27 05:16:38;;;;;;;31.65;28.50;;;9.50;99.90;;;;;;4960349;28;20145;-87
2023/09/27 05:19:13;;;;;;;30.05;27.30;;;9.70;99.90;;;;;;4969830;28;20062;-87
2023/09/27 05:21:47;;;;;;;30.42;27.65;;;9.60;99.90;;;;;;4979745;28;20074;-87
2023/09/27 05:24:20;;;;;;;31.42;28.65;;;9.60;99.90;;;;;;4953763;28;20062;-87
2023/09/27 05:27:03;;;;;;;32.10;29.08;;;9.80;99.90;;;;;;4953909;28;20055;-87
2023/09/27 05:29:38;;;;;;;30.92;27.70;;;9.80;99.90;;;;;;4966748;28;20023;-87
2023/09/27 05:32:19;;;;;;;30.00;27.20;;;9.90;99.90;;;;;;4955811;28;20054;-87
2023/09/27 05:34:58;;;;;;;29.83;26.85;;;10.00;99.90;;;;;;4955094;28;20367;-87
2023/09/27 05:37:45;;;;;;;29.10;26.30;;;10.00;99.90;;;;;;4923733;28;20123;-87
2023/09/27 05:40:43;;;;;;;28.08;25.35;;;10.00;99.90;;;;;;4926075;28;20147;-88
2023/09/27 05:43:15;;;;;;;27.33;24.70;;;9.90;99.90;;;;;;4937669;28;20051;-87
2023/09/27 05:45:59;;;;;;;25.70;23.45;;;10.00;99.90;;;;;;4926480;28;20039;-87
2023/09/27 05:49:15;;;;;;;27.08;24.63;;;10.00;99.90;;;;;;4960051;28;20149;-88
2023/09/27 05:51:44;;;;;;;27.45;24.92;;;9.90;99.90;;;;;;4943213;28;20102;-87
2023/09/27 05:54:20;;;;;;;28.97;26.23;;;9.80;99.90;;;;;;4966001;28;20097;-87
2023/09/27 05:56:51;;;;;;;31.83;28.10;;;9.90;99.90;;;;;;4934844;28;20313;-87
2023/09/27 05:59:24;;;;;;;35.13;31.75;;;9.90;99.90;;;;;;4949568;28;20063;-86
2023/09/27 06:01:55;;;;;;;28.20;25.50;;;9.80;99.90;;;;;;4934506;28;20051;-87
2023/09/27 06:04:22;;;;;;;30.70;27.95;;;9.90;99.90;;;;;;4949048;28;21593;-86
2023/09/27 06:06:49;;;;;;;37.10;32.95;;;9.90;99.90;;;;;;4934291;28;20129;-86
2023/09/27 06:09:19;;;;;;;36.10;32.28;;;10.00;99.90;;;;;;4936059;28;20043;-86
2023/09/27 06:11:57;;;;;;;34.40;31.15;;;10.00;99.90;;;;;;4935328;28;20077;-84
2023/09/27 06:14:43;;;;;;;34.63;31.48;;;10.20;99.90;;;;;;4945777;28;20127;-87
2023/09/27 06:17:15;;;;;;;36.42;32.78;;;10.40;99.90;;;;;;4960623;28;20046;-86
2023/09/27 06:19:44;;;;;;;38.45;34.53;;;10.40;99.90;;;;;;4946750;28;20046;-86
2023/09/27 06:22:16;;;;;;;37.50;34.05;;;10.40;99.90;;;;;;4952299;28;20043;-86
2023/09/27 06:24:45;;;;;;;36.25;32.90;;;10.40;99.90;;;;;;4936934;28;20044;-86
2023/09/27 06:27:13;;;;;;;37.78;33.92;;;10.50;99.90;;;;;;4961601;28;20042;-86
2023/09/27 06:29:41;;;;;;;33.08;29.80;;;10.70;99.90;;;;;;4946232;28;20102;-81
2023/09/27 06:32:09;;;;;;;31.23;28.00;;;10.70;99.90;;;;;;4955705;28;20046;-82
2023/09/27 06:34:39;;;;;;;30.08;27.23;;;10.70;99.90;;;;;;4959284;28;20077;-82
2023/09/27 06:37:09;;;;;;;28.88;26.20;;;10.80;99.90;;;;;;4932861;28;20047;-81
2023/09/27 06:39:37;;;;;;;30.50;27.35;;;10.80;99.90;;;;;;4949406;28;20039;-76
2023/09/27 06:42:06;;;;;;;30.98;28.00;;;11.00;99.90;;;;;;4965312;28;20099;-82
2023/09/27 06:44:34;;;;;;;30.20;27.40;;;11.10;99.90;;;;;;4947786;28;20121;-76
2023/09/27 06:47:02;;;;;;;31.25;28.50;;;11.30;99.90;;;;;;4953233;28;20051;-77
2023/09/27 06:49:30;;;;;;;30.65;27.75;;;11.40;99.90;;;;;;4940416;28;20140;-76
2023/09/27 06:51:57;;;;;;;30.85;28.17;;;11.50;99.90;;;;;;4944452;28;21724;-76
2023/09/27 06:54:25;;;;;;;30.80;28.30;;;11.60;99.90;;;;;;4936637;28;20054;-77
2023/09/27 06:56:53;;;;;;;31.92;29.23;;;11.70;99.90;;;;;;4941266;28;20115;-76
2023/09/27 06:59:20;;;;;;;30.83;28.23;;;11.90;99.90;;;;;;4945661;28;20043;-75
2023/09/27 07:01:49;;;;;;;37.45;34.28;;;12.00;99.90;;;;;;4941528;28;20043;-76
2023/09/27 07:04:16;;;;;;;31.20;28.55;;;12.20;99.90;;;;;;4942181;28;20502;-76
2023/09/27 07:06:43;;;;;;;29.95;27.55;;;12.30;99.90;;;;;;4965874;28;20141;-76
2023/09/27 07:09:16;;;;;;;28.77;26.58;;;12.50;99.90;;;;;;4938906;28;20046;-75
2023/09/27 07:11:44;;;;;;;27.33;25.27;;;12.70;99.90;;;;;;4940585;28;20094;-76
2023/09/27 07:14:12;;;;;;;27.55;25.48;;;12.80;99.90;;;;;;4951871;28;20094;-77
2023/09/27 07:16:39;;;;;;;27.15;25.02;;;12.90;99.90;;;;;;4929583;28;20141;-76
2023/09/27 07:19:21;;;;;;;27.10;25.20;;;13.20;99.90;;;;;;4942311;28;20128;-74
2023/09/27 07:21:48;;;;;;;27.27;25.17;;;13.40;99.90;;;;;;4938491;28;20054;-76
2023/09/27 07:24:15;;;;;;;26.95;24.83;;;13.70;99.90;;;;;;4951768;28;20083;-75
2023/09/27 07:26:42;;;;;;;27.63;25.35;;;13.80;99.90;;;;;;4940720;28;20039;-76
2023/09/27 07:29:13;;;;;;;25.45;23.27;;;13.90;99.90;;;;;;4943090;28;20581;-77
2023/09/27 07:31:41;;;;;;;27.25;24.80;;;14.00;99.90;;;;;;4939509;28;20540;-76
2023/09/27 07:34:09;;;;;;;27.98;25.77;;;14.00;99.90;;;;;;4937431;28;20039;-76
2023/09/27 07:36:36;;;;;;;28.52;26.27;;;14.20;99.90;;;;;;4939684;28;20046;-76
2023/09/27 07:39:05;;;;;;;26.42;24.48;;;14.60;99.90;;;;;;4954782;28;20583;-77
2023/09/27 07:41:35;;;;;;;24.52;22.75;;;15.00;99.90;;;;;;4939020;28;20055;-76
2023/09/27 07:44:06;;;;;;;22.65;20.67;;;15.50;99.90;;;;;;4937700;28;20050;-75
2023/09/27 07:46:33;;;;;;;20.77;19.38;;;16.00;99.90;;;;;;4942705;28;20074;-77
2023/09/27 07:49:00;;;;;;;22.27;20.77;;;16.50;99.90;;;;;;4947386;28;20054;-77
2023/09/27 07:51:27;;;;;;;24.80;22.90;;;17.00;99.90;;;;;;4948370;28;20042;-77
2023/09/27 07:53:54;;;;;;;24.50;22.70;;;17.50;99.90;;;;;;4943270;28;20061;-77
2023/09/27 07:56:23;;;;;;;26.10;24.30;;;18.00;99.90;;;;;;4942194;28;20089;-77
2023/09/27 07:58:51;;;;;;;27.05;25.15;;;18.50;99.90;;;;;;4953270;28;20125;-77
2023/09/27 08:01:23;;;;;;;27.65;25.77;;;19.10;99.90;;;;;;4940385;28;20982;-76
2023/09/27 08:03:51;;;;;;;26.15;24.42;;;19.60;99.90;;;;;;4955185;28;20657;-76
2023/09/27 08:06:20;;;;;;;25.98;24.33;;;19.80;99.90;;;;;;4932754;28;20061;-77
2023/09/27 08:08:47;;;;;;;26.00;24.30;;;20.20;99.90;;;;;;4929547;28;20137;-77
2023/09/27 08:11:14;;;;;;;25.42;23.83;;;20.20;99.90;;;;;;4967849;28;20157;-77
2023/09/27 08:13:41;;;;;;;26.65;24.75;;;20.40;99.90;;;;;;4938454;28;20038;-76
2023/09/27 08:16:09;;;;;;;26.08;24.30;;;20.30;99.90;;;;;;4942871;28;20069;-77
2023/09/27 08:18:40;;;;;;;25.70;23.83;;;20.30;99.90;;;;;;4939492;28;20055;-77
2023/09/27 08:21:07;;;;;;;25.63;24.02;;;20.30;99.90;;;;;;4936190;28;20047;-76
2023/09/27 08:23:33;;;;;;;25.92;24.23;;;20.70;99.90;;;;;;4927993;28;20472;-77
2023/09/27 08:26:00;;;;;;;24.70;23.08;;;21.00;99.90;;;;;;4931646;28;20162;-76
2023/09/27 08:28:29;;;;;;;24.75;23.25;;;21.50;99.90;;;;;;4923369;28;20069;-76
2023/09/27 08:30:59;;;;;;;26.35;24.48;;;21.50;99.90;;;;;;4938573;28;20628;-77
2023/09/27 08:33:27;;;;;;;25.45;23.63;;;21.70;99.90;;;;;;4955622;28;20045;-76
2023/09/27 08:35:55;;;;;;;24.15;22.50;;;21.80;99.90;;;;;;4939899;28;20824;-77
2023/09/27 08:38:25;;;;;;;26.77;24.77;;;21.80;99.90;;;;;;4943616;28;22068;-76
2023/09/27 08:40:52;;;;;;;26.45;24.75;;;21.70;99.90;;;;;;4937702;28;20039;-76
2023/09/27 08:43:21;;;;;;;27.42;25.60;;;21.90;99.90;;;;;;4938951;28;20158;-76
2023/09/27 08:45:51;;;;;;;27.52;25.52;;;22.10;99.90;;;;;;4953540;28;20047;-75
2023/09/27 08:48:22;;;;;;;27.25;25.35;;;22.20;99.90;;;;;;4945480;28;20074;-76
2023/09/27 08:50:50;;;;;;;27.27;25.45;;;22.30;99.90;;;;;;4953669;28;20043;-76
2023/09/27 08:53:16;;;;;;;27.42;25.63;;;22.30;99.90;;;;;;4940811;28;20093;-75
2023/09/27 08:55:48;;;;;;;27.52;25.55;;;22.10;99.90;;;;;;4940114;28;20046;-75
2023/09/27 08:58:23;;;;;;;27.45;25.35;;;22.30;99.90;;;;;;4941781;28;20055;-76
2023/09/27 09:00:50;;;;;;;27.70;26.00;;;22.30;99.90;;;;;;4933954;28;20070;-75
2023/09/27 09:03:18;;;;;;;28.75;26.95;;;22.50;99.90;;;;;;4943944;28;20631;-75
2023/09/27 09:05:47;;;;;;;27.38;25.65;;;22.90;99.90;;;;;;4940926;28;20677;-75
2023/09/27 09:08:14;;;;;;;28.10;26.20;;;23.00;99.90;;;;;;4944599;28;20055;-75
2023/09/27 09:10:47;;;;;;;27.92;26.20;;;23.00;99.90;;;;;;4939244;28;20705;-77
2023/09/27 09:13:15;;;;;;;28.75;26.80;;;23.10;99.90;;;;;;4954992;28;20047;-77
2023/09/27 09:15:48;;;;;;;29.38;27.48;;;23.00;99.90;;;;;;4953736;28;20047;-76
2023/09/27 09:18:29;;;;;;;28.80;27.08;;;23.10;99.90;;;;;;4954364;28;20050;-77
2023/09/27 09:20:59;;;;;;;27.58;25.60;;;23.20;99.90;;;;;;4937564;28;20146;-77
2023/09/27 09:23:31;;;;;;;27.27;25.42;;;23.30;99.90;;;;;;4951998;28;20046;-76
2023/09/27 09:25:59;;;;;;;27.80;25.90;;;23.30;99.90;;;;;;4954624;28;20151;-77
2023/09/27 09:28:26;;;;;;;29.23;27.33;;;23.20;99.90;;;;;;4954769;28;20054;-77
2023/09/27 09:30:55;;;;;;;28.40;26.40;;;23.20;99.90;;;;;;4937492;28;20093;-76
2023/09/27 09:33:28;;;;;;;28.38;26.40;;;23.20;99.90;;;;;;4941790;28;20509;-77
2023/09/27 09:35:56;;;;;;;27.95;25.70;;;23.30;99.90;;;;;;4927463;28;20046;-77
2023/09/27 09:38:31;;;;;;;27.92;25.98;;;23.10;99.90;;;;;;4953909;28;20042;-77
2023/09/27 09:41:01;;;;;;;28.73;26.80;;;23.00;99.90;;;;;;4958023;28;20051;-76
2023/09/27 09:43:33;;;;;;;28.20;26.40;;;22.80;99.90;;;;;;4934167;28;20063;-76
2023/09/27 09:46:06;;;;;;;29.05;27.08;;;22.90;99.90;;;;;;4925903;28;20606;-76
2023/09/27 09:48:34;;;;;;;27.35;25.55;;;23.00;99.90;;;;;;4940963;28;20043;-77
2023/09/27 09:51:03;;;;;;;27.70;25.80;;;23.00;99.90;;;;;;4946416;28;20134;-77
2023/09/27 09:53:30;;;;;;;27.80;26.00;;;22.80;99.90;;;;;;4939751;28;20038;-77
2023/09/27 09:56:02;;;;;;;27.95;26.10;;;22.60;99.90;;;;;;4935647;28;20091;-76
2023/09/27 09:58:42;;;;;;;28.08;25.95;;;22.40;99.90;;;;;;4968710;28;20046;-77
2023/09/27 10:01:13;;;;;;;27.38;25.48;;;22.30;99.90;;;;;;4950737;28;20039;-76
2023/09/27 10:03:47;;;;;;;28.70;26.90;;;22.20;99.90;;;;;;4941177;28;20054;-76
2023/09/27 10:06:20;;;;;;;27.25;25.40;;;22.10;99.90;;;;;;4944907;28;20464;-75
2023/09/27 10:09:05;;;;;;;28.73;26.85;;;22.40;99.90;;;;;;4948251;28;20503;-76
2023/09/27 10:11:34;;;;;;;28.52;26.67;;;22.90;99.90;;;;;;4945908;28;20543;-76
2023/09/27 10:14:04;;;;;;;26.90;25.05;;;23.00;99.90;;;;;;4937250;28;20356;-76
2023/09/27 10:16:32;;;;;;;27.92;26.10;;;23.30;99.90;;;;;;4941205;28;20074;-76
2023/09/27 10:19:01;;;;;;;28.13;26.02;;;23.40;99.90;;;;;;4938752;28;20093;-77
2023/09/27 10:21:28;;;;;;;29.73;27.83;;;23.20;99.90;;;;;;4941961;28;20477;-75
2023/09/27 10:24:00;;;;;;;28.42;26.40;;;23.20;99.90;;;;;;4942936;28;20159;-75
2023/09/27 10:26:27;;;;;;;28.98;26.88;;;22.90;99.90;;;;;;4969286;28;20149;-77
2023/09/27 10:29:01;;;;;;;28.50;26.33;;;22.50;99.90;;;;;;4958983;28;20051;-76
2023/09/27 10:31:32;;;;;;;28.88;26.85;;;22.20;99.90;;;;;;4952766;28;20048;-76
2023/09/27 10:33:59;;;;;;;27.08;25.15;;;22.20;99.90;;;;;;4966725;28;20111;-76
2023/09/27 10:36:28;;;;;;;26.60;24.73;;;22.10;99.90;;;;;;4952977;28;20659;-75
2023/09/27 10:38:55;;;;;;;26.58;24.58;;;22.20;99.90;;;;;;4930978;28;20050;-76
2023/09/27 10:41:34;;;;;;;27.65;25.75;;;22.30;99.90;;;;;;4951903;28;20097;-76
2023/09/27 10:44:02;;;;;;;27.65;25.73;;;22.20;99.90;;;;;;4940068;28;20078;-76
2023/09/27 10:46:49;;;;;;;28.15;26.05;;;22.10;99.90;;;;;;4959291;28;20050;-75
2023/09/27 10:49:21;;;;;;;27.33;25.52;;;22.10;99.90;;;;;;4957455;28;20073;-76
2023/09/27 10:51:48;;;;;;;27.23;25.48;;;22.00;99.90;;;;;;4959219;28;20127;-75
2023/09/27 10:54:28;;;;;;;28.02;26.13;;;21.80;99.90;;;;;;4958884;28;20069;-77
2023/09/27 10:56:56;;;;;;;27.40;25.13;;;21.60;99.90;;;;;;4959953;28;20054;-76
2023/09/27 10:59:27;;;;;;;27.75;25.75;;;21.60;99.90;;;;;;4971119;28;20107;-76
2023/09/27 11:01:54;;;;;;;26.52;24.60;;;21.40;99.90;;;;;;4954641;28;20055;-75
2023/09/27 11:04:25;;;;;;;27.48;25.40;;;21.30;99.90;;;;;;4973645;28;20050;-76
2023/09/27 11:06:53;;;;;;;27.65;25.63;;;21.20;99.90;;;;;;4942396;28;20054;-75
2023/09/27 11:09:20;;;;;;;27.17;25.27;;;21.20;99.90;;;;;;4961332;28;20221;-77
2023/09/27 11:11:49;;;;;;;27.77;25.90;;;21.10;99.90;;;;;;4975499;28;20046;-77
2023/09/27 11:14:25;;;;;;;28.52;26.55;;;21.20;99.90;;;;;;4973833;28;20058;-75
2023/09/27 11:16:52;;;;;;;27.80;25.83;;;21.40;99.90;;;;;;4969928;28;20591;-75
2023/09/27 11:19:30;;;;;;;28.45;26.48;;;21.30;99.90;;;;;;4962827;28;20051;-75
2023/09/27 11:21:57;;;;;;;28.83;26.75;;;21.20;99.90;;;;;;4951091;28;20149;-76
2023/09/27 11:24:35;;;;;;;28.23;26.30;;;21.30;99.90;;;;;;4948093;28;20038;-76
2023/09/27 11:27:02;;;;;;;28.30;26.48;;;21.30;99.90;;;;;;4955323;28;20050;-76
2023/09/27 11:29:29;;;;;;;28.95;26.95;;;21.20;99.90;;;;;;4943401;28;20051;-79
2023/09/27 11:31:57;;;;;;;28.02;26.10;;;21.10;99.90;;;;;;4941989;28;20334;-78
2023/09/27 11:34:24;;;;;;;28.60;26.70;;;21.30;99.90;;;;;;4961770;28;20050;-78
2023/09/27 11:36:55;;;;;;;28.88;27.08;;;21.30;99.90;;;;;;4944019;28;20047;-78
2023/09/27 11:39:50;;;;;;;28.58;26.45;;;21.40;99.90;;;;;;4924626;28;20141;-78
2023/09/27 11:42:21;;;;;;;29.15;27.25;;;21.50;99.90;;;;;;4950460;28;20047;-78
2023/09/27 11:45:04;;;;;;;29.80;27.58;;;21.60;99.90;;;;;;4938972;28;20742;-78
2023/09/27 11:47:48;;;;;;;29.25;26.92;;;21.50;99.90;;;;;;4959195;28;20050;-77
2023/09/27 11:50:17;;;;;;;28.73;26.83;;;21.50;99.90;;;;;;4956357;28;20053;-78
2023/09/27 11:52:46;;;;;;;29.23;27.23;;;21.50;99.90;;;;;;4955069;28;20417;-79
2023/09/27 11:55:14;;;;;;;30.75;28.75;;;21.50;99.90;;;;;;4947654;28;20061;-79
2023/09/27 11:57:41;;;;;;;30.40;28.15;;;21.30;99.90;;;;;;4951810;28;20061;-79
2023/09/27 12:00:09;;;;;;;29.42;27.42;;;21.20;99.90;;;;;;4961491;28;20046;-77
2023/09/27 12:02:35;;;;;;;30.67;28.58;;;21.30;99.90;;;;;;4959478;28;20166;-78
2023/09/27 12:05:15;;;;;;;31.10;28.80;;;21.50;99.90;;;;;;4947107;28;21167;-77
2023/09/27 12:07:43;;;;;;;30.80;28.67;;;21.50;99.90;;;;;;4962134;28;20046;-81
2023/09/27 12:10:10;;;;;;;30.33;28.20;;;21.50;99.90;;;;;;4947406;28;20043;-78
2023/09/27 12:12:37;;;;;;;29.15;27.35;;;21.90;99.90;;;;;;4936588;28;20053;-79
2023/09/27 12:15:05;;;;;;;30.02;28.00;;;22.30;99.90;;;;;;4960446;28;20054;-78
2023/09/27 12:17:32;;;;;;;31.52;29.45;;;22.30;99.90;;;;;;4950293;28;20043;-79
2023/09/27 12:19:59;;;;;;;30.60;28.35;;;22.40;99.90;;;;;;4943438;28;20042;-78
2023/09/27 12:22:28;;;;;;;30.75;28.65;;;22.40;99.90;;;;;;4961001;28;20121;-79
2023/09/27 12:24:55;;;;;;;30.10;27.73;;;22.30;99.90;;;;;;4949847;28;20126;-78
2023/09/27 12:27:22;;;;;;;29.55;27.55;;;22.30;99.90;;;;;;4945693;28;20124;-78
2023/09/27 12:29:48;;;;;;;28.67;26.67;;;22.50;99.90;;;;;;4962816;28;20564;-80
2023/09/27 12:32:15;;;;;;;29.30;27.27;;;22.70;99.90;;;;;;4944047;28;20408;-79
2023/09/27 12:34:42;;;;;;;30.10;28.10;;;22.70;99.90;;;;;;4960564;28;20437;-79
2023/09/27 12:37:09;;;;;;;29.13;27.33;;;22.80;99.90;;;;;;4936203;28;20042;-80
2023/09/27 12:39:37;;;;;;;28.42;26.33;;;22.80;99.90;;;;;;4953078;28;20055;-80
2023/09/27 12:42:04;;;;;;;28.48;26.58;;;22.80;99.90;;;;;;4950881;28;20142;-81
2023/09/27 12:44:39;;;;;;;28.55;26.65;;;22.90;99.90;;;;;;4950306;28;20541;-79
2023/09/27 12:47:09;;;;;;;28.55;26.17;;;22.70;99.90;;;;;;4961982;28;20599;-79
2023/09/27 12:49:39;;;;;;;29.85;27.65;;;22.70;99.90;;;;;;4945593;28;20051;-79
2023/09/27 12:52:06;;;;;;;28.55;26.48;;;22.80;99.90;;;;;;4944491;28;20806;-79
2023/09/27 12:54:33;;;;;;;28.40;26.30;;;22.80;99.90;;;;;;4951358;28;20521;-79
2023/09/27 12:57:00;;;;;;;28.60;26.52;;;22.90;99.90;;;;;;4946876;28;20544;-80
2023/09/27 12:59:27;;;;;;;28.88;26.88;;;23.00;99.90;;;;;;4962763;28;20070;-80
2023/09/27 13:01:54;;;;;;;27.63;25.83;;;23.30;99.90;;;;;;4946159;28;20533;-81
2023/09/27 13:04:21;;;;;;;28.50;26.73;;;23.40;99.90;;;;;;4953957;28;20111;-80
2023/09/27 13:06:48;;;;;;;28.85;26.70;;;23.60;99.90;;;;;;4957960;28;20105;-81
2023/09/27 13:09:17;;;;;;;28.33;26.33;;;23.60;99.90;;;;;;4933592;28;20696;-80
2023/09/27 13:11:44;;;;;;;29.95;27.65;;;23.50;99.90;;;;;;4935274;28;20062;-79
2023/09/27 13:14:11;;;;;;;28.67;26.55;;;23.30;99.90;;;;;;4946392;28;20093;-79
2023/09/27 13:16:38;;;;;;;29.75;26.88;;;23.30;99.90;;;;;;4953865;28;20035;-79
2023/09/27 13:19:09;;;;;;;28.65;26.55;;;23.40;99.90;;;;;;4935944;28;20077;-79
2023/09/27 13:21:36;;;;;;;28.70;26.80;;;23.30;99.90;;;;;;4938508;28;20038;-79
2023/09/27 13:24:03;;;;;;;28.83;26.50;;;23.20;99.90;;;;;;4948834;28;20054;-78
2023/09/27 13:26:33;;;;;;;28.73;26.75;;;23.00;99.90;;;;;;4940131;28;20497;-78
2023/09/27 13:29:00;;;;;;;28.13;26.20;;;23.00;99.90;;;;;;4948153;28;20078;-79
2023/09/27 13:31:34;;;;;;;27.30;25.40;;;23.00;99.90;;;;;;4953730;28;20050;-79
2023/09/27 13:34:01;;;;;;;27.73;25.92;;;23.10;99.90;;;;;;4954469;28;20053;-79
2023/09/27 13:36:39;;;;;;;26.60;24.90;;;23.10;99.90;;;;;;4935956;28;20055;-78
2023/09/27 13:39:13;;;;;;;27.80;26.00;;;23.40;99.90;;;;;;4938550;28;20054;-79
2023/09/27 13:41:44;;;;;;;27.23;25.27;;;23.50;99.90;;;;;;4951466;28;20630;-79
2023/09/27 13:44:13;;;;;;;28.55;26.35;;;23.70;99.90;;;;;;4951216;28;20670;-81
2023/09/27 13:46:40;;;;;;;29.08;27.08;;;23.90;99.90;;;;;;4958079;28;20045;-79
2023/09/27 13:49:08;;;;;;;29.27;27.25;;;23.80;99.90;;;;;;4952880;28;20043;-80
2023/09/27 13:51:36;;;;;;;28.90;26.80;;;23.70;99.90;;;;;;4950658;28;20039;-80